sensor_id;sensor_type;location;lat;lon;timestamp;pressure;altitude;pressure_sealevel;temperature;humidity
63535;BME280;55128;50.230;18.944;2023-05-11T00:03:25;98604.53;;;10.46;54.43
63535;BME280;55128;50.230;18.944;2023-05-11T00:08:25;98605.25;;;10.30;54.93
63535;BME280;55128;50.230;18.944;2023-05-11T00:13:27;98598.78;;;10.16;55.82
63535;BME280;55128;50.230;18.944;2023-05-11T00:18:28;98587.25;;;9.96;56.52
63535;BME280;55128;50.230;18.944;2023-05-11T00:23:28;98588.47;;;9.89;56.26
63535;BME280;55128;50.230;18.944;2023-05-11T00:28:28;98595.03;;;9.80;56.72
63535;BME280;55128;50.230;18.944;2023-05-11T00:33:29;98593.84;;;9.67;57.07
63535;BME280;55128;50.230;18.944;2023-05-11T00:38:30;98592.31;;;9.61;57.08
63535;BME280;55128;50.230;18.944;2023-05-11T00:43:30;98593.78;;;9.48;56.82
63535;BME280;55128;50.230;18.944;2023-05-11T00:48:31;98583.56;;;9.39;59.04
63535;BME280;55128;50.230;18.944;2023-05-11T00:53:31;98589.41;;;9.25;59.90
63535;BME280;55128;50.230;18.944;2023-05-11T00:58:32;98593.31;;;9.16;60.13
63535;BME280;55128;50.230;18.944;2023-05-11T01:03:33;98598.72;;;9.13;60.06
63535;BME280;55128;50.230;18.944;2023-05-11T01:08:47;98597.19;;;9.07;60.41
63535;BME280;55128;50.230;18.944;2023-05-11T01:13:54;98590.59;;;8.95;60.13
63535;BME280;55128;50.230;18.944;2023-05-11T01:19:23;98587.38;;;8.87;61.64
63535;BME280;55128;50.230;18.944;2023-05-11T01:24:31;98589.91;;;8.68;61.78
63535;BME280;55128;50.230;18.944;2023-05-11T01:30:01;98583.53;;;8.50;62.50
63535;BME280;55128;50.230;18.944;2023-05-11T01:35:16;98583.66;;;8.47;62.58
63535;BME280;55128;50.230;18.944;2023-05-11T01:40:21;98587.41;;;8.40;62.54
63535;BME280;55128;50.230;18.944;2023-05-11T01:45:24;98589.25;;;8.38;63.34
63535;BME280;55128;50.230;18.944;2023-05-11T01:50:25;98593.03;;;8.31;62.94
63535;BME280;55128;50.230;18.944;2023-05-11T01:55:26;98591.19;;;8.33;62.67
63535;BME280;55128;50.230;18.944;2023-05-11T02:00:30;98590.16;;;8.13;64.34
63535;BME280;55128;50.230;18.944;2023-05-11T02:05:32;98590.28;;;8.10;64.47
63535;BME280;55128;50.230;18.944;2023-05-11T02:10:34;98597.78;;;7.97;65.46
63535;BME280;55128;50.230;18.944;2023-05-11T02:15:38;98600.59;;;7.93;65.19
63535;BME280;55128;50.230;18.944;2023-05-11T02:20:42;98607.28;;;8.03;64.34
63535;BME280;55128;50.230;18.944;2023-05-11T02:25:43;98601.31;;;7.98;64.70
63535;BME280;55128;50.230;18.944;2023-05-11T02:30:45;98590.88;;;7.93;65.23
63535;BME280;55128;50.230;18.944;2023-05-11T02:35:46;98601.50;;;7.92;64.96
63535;BME280;55128;50.230;18.944;2023-05-11T02:40:50;98596.03;;;7.98;64.83
63535;BME280;55128;50.230;18.944;2023-05-11T02:46:01;98595.63;;;7.84;65.50
63535;BME280;55128;50.230;18.944;2023-05-11T02:51:05;98594.06;;;7.78;65.83
63535;BME280;55128;50.230;18.944;2023-05-11T02:56:07;98598.78;;;7.70;67.12
63535;BME280;55128;50.230;18.944;2023-05-11T03:01:08;98588.78;;;7.78;66.56
63535;BME280;55128;50.230;18.944;2023-05-11T03:06:09;98592.41;;;7.75;66.41
63535;BME280;55128;50.230;18.944;2023-05-11T03:11:10;98592.56;;;7.71;67.05
63535;BME280;55128;50.230;18.944;2023-05-11T03:16:12;98606.75;;;7.68;67.09
63535;BME280;55128;50.230;18.944;2023-05-11T03:21:15;98594.16;;;7.75;67.09
63535;BME280;55128;50.230;18.944;2023-05-11T03:26:17;98599.63;;;7.95;65.22
63535;BME280;55128;50.230;18.944;2023-05-11T03:31:18;98598.44;;;8.04;64.97
63535;BME280;55128;50.230;18.944;2023-05-11T03:36:20;98600.41;;;8.23;65.04
63535;BME280;55128;50.230;18.944;2023-05-11T03:41:22;98595.88;;;8.26;65.73
63535;BME280;55128;50.230;18.944;2023-05-11T03:46:25;98597.13;;;8.40;65.47
63535;BME280;55128;50.230;18.944;2023-05-11T03:51:27;98601.34;;;8.69;63.32
63535;BME280;55128;50.230;18.944;2023-05-11T03:56:28;98596.88;;;8.71;62.63
63535;BME280;55128;50.230;18.944;2023-05-11T04:01:29;98597.50;;;9.00;61.82
63535;BME280;55128;50.230;18.944;2023-05-11T04:06:30;98607.94;;;9.03;61.39
63535;BME280;55128;50.230;18.944;2023-05-11T04:11:35;98605.72;;;9.14;61.04
63535;BME280;55128;50.230;18.944;2023-05-11T04:16:35;98605.25;;;9.26;60.05
63535;BME280;55128;50.230;18.944;2023-05-11T04:21:35;98612.50;;;9.21;59.94
63535;BME280;55128;50.230;18.944;2023-05-11T04:26:36;98617.00;;;9.19;59.81
63535;BME280;55128;50.230;18.944;2023-05-11T04:31:36;98614.84;;;9.29;59.29
63535;BME280;55128;50.230;18.944;2023-05-11T04:36:36;98613.72;;;9.34;59.85
63535;BME280;55128;50.230;18.944;2023-05-11T04:41:37;98616.19;;;9.61;58.73
63535;BME280;55128;50.230;18.944;2023-05-11T04:46:37;98616.88;;;10.06;57.89
63535;BME280;55128;50.230;18.944;2023-05-11T04:51:37;98623.59;;;10.35;57.69
63535;BME280;55128;50.230;18.944;2023-05-11T04:56:38;98622.22;;;11.21;55.70
63535;BME280;55128;50.230;18.944;2023-05-11T05:01:39;98614.81;;;13.30;53.14
63535;BME280;55128;50.230;18.944;2023-05-11T05:06:40;98620.41;;;15.98;44.67
63535;BME280;55128;50.230;18.944;2023-05-11T05:11:40;98627.84;;;17.45;43.24
63535;BME280;55128;50.230;18.944;2023-05-11T05:16:40;98630.13;;;19.47;36.51
63535;BME280;55128;50.230;18.944;2023-05-11T05:21:41;98627.56;;;20.52;33.17
63535;BME280;55128;50.230;18.944;2023-05-11T05:26:42;98622.47;;;21.30;32.04
63535;BME280;55128;50.230;18.944;2023-05-11T05:31:42;98639.38;;;22.11;30.06
63535;BME280;55128;50.230;18.944;2023-05-11T05:36:42;98632.53;;;22.37;29.50
63535;BME280;55128;50.230;18.944;2023-05-11T05:41:43;98632.59;;;23.02;28.31
63535;BME280;55128;50.230;18.944;2023-05-11T05:46:43;98639.78;;;23.66;27.03
63535;BME280;55128;50.230;18.944;2023-05-11T05:51:43;98640.16;;;24.88;26.96
63535;BME280;55128;50.230;18.944;2023-05-11T05:56:44;98642.97;;;24.52;26.52
63535;BME280;55128;50.230;18.944;2023-05-11T06:01:44;98645.66;;;25.38;25.74
63535;BME280;55128;50.230;18.944;2023-05-11T06:06:46;98648.19;;;26.56;24.52
63535;BME280;55128;50.230;18.944;2023-05-11T06:11:49;98650.34;;;26.86;23.66
63535;BME280;55128;50.230;18.944;2023-05-11T06:16:50;98649.03;;;25.99;24.28
63535;BME280;55128;50.230;18.944;2023-05-11T06:21:50;98658.59;;;27.25;22.77
63535;BME280;55128;50.230;18.944;2023-05-11T06:26:51;98666.00;;;27.48;22.60
63535;BME280;55128;50.230;18.944;2023-05-11T06:31:51;98668.06;;;28.31;21.68
63535;BME280;55128;50.230;18.944;2023-05-11T06:36:53;98658.91;;;27.70;22.08
63535;BME280;55128;50.230;18.944;2023-05-11T06:41:53;98659.72;;;28.48;21.10
63535;BME280;55128;50.230;18.944;2023-05-11T06:46:54;98660.59;;;29.31;19.98
63535;BME280;55128;50.230;18.944;2023-05-11T06:51:54;98665.09;;;29.09;20.52
63535;BME280;55128;50.230;18.944;2023-05-11T06:56:55;98653.72;;;29.72;19.99
63535;BME280;55128;50.230;18.944;2023-05-11T07:01:56;98654.84;;;31.68;18.45
63535;BME280;55128;50.230;18.944;2023-05-11T07:06:56;98660.56;;;31.25;18.11
63535;BME280;55128;50.230;18.944;2023-05-11T07:11:57;98651.81;;;30.80;19.25
63535;BME280;55128;50.230;18.944;2023-05-11T07:16:57;98652.72;;;30.87;18.24
63535;BME280;55128;50.230;18.944;2023-05-11T07:21:57;98649.06;;;31.08;17.64
63535;BME280;55128;50.230;18.944;2023-05-11T07:26:58;98653.84;;;31.28;18.19
63535;BME280;55128;50.230;18.944;2023-05-11T07:31:58;98661.19;;;32.44;16.21
63535;BME280;55128;50.230;18.944;2023-05-11T07:36:59;98643.59;;;32.91;15.99
63535;BME280;55128;50.230;18.944;2023-05-11T07:41:59;98649.88;;;33.25;15.83
63535;BME280;55128;50.230;18.944;2023-05-11T07:47:00;98651.81;;;33.77;15.51
63535;BME280;55128;50.230;18.944;2023-05-11T07:52:00;98648.78;;;30.68;18.29
63535;BME280;55128;50.230;18.944;2023-05-11T07:57:00;98648.78;;;31.38;18.12
63535;BME280;55128;50.230;18.944;2023-05-11T08:02:04;98648.81;;;32.00;16.86
63535;BME280;55128;50.230;18.944;2023-05-11T08:07:04;98636.41;;;32.90;16.05
63535;BME280;55128;50.230;18.944;2023-05-11T08:12:05;98636.75;;;33.27;15.25
63535;BME280;55128;50.230;18.944;2023-05-11T08:17:05;98639.00;;;32.72;16.22
63535;BME280;55128;50.230;18.944;2023-05-11T08:22:05;98639.41;;;32.62;16.27
63535;BME280;55128;50.230;18.944;2023-05-11T08:27:06;98637.31;;;33.49;15.70
63535;BME280;55128;50.230;18.944;2023-05-11T08:32:07;98626.31;;;33.43;15.29
63535;BME280;55128;50.230;18.944;2023-05-11T08:37:07;98630.88;;;33.04;16.20
63535;BME280;55128;50.230;18.944;2023-05-11T08:42:08;98626.81;;;34.10;15.73
63535;BME280;55128;50.230;18.944;2023-05-11T08:47:10;98628.56;;;33.59;15.39
63535;BME280;55128;50.230;18.944;2023-05-11T08:52:11;98630.94;;;32.64;15.60
63535;BME280;55128;50.230;18.944;2023-05-11T08:57:13;98620.06;;;30.36;18.78
63535;BME280;55128;50.230;18.944;2023-05-11T09:02:21;98608.63;;;27.64;20.79
63535;BME280;55128;50.230;18.944;2023-05-11T09:07:59;98601.75;;;26.09;23.58
63535;BME280;55128;50.230;18.944;2023-05-11T09:13:01;98607.41;;;27.98;20.86
63535;BME280;55128;50.230;18.944;2023-05-11T09:18:01;98596.44;;;25.74;22.84
63535;BME280;55128;50.230;18.944;2023-05-11T09:23:02;98598.25;;;24.64;24.73
63535;BME280;55128;50.230;18.944;2023-05-11T09:28:03;98598.19;;;26.41;23.36
63535;BME280;55128;50.230;18.944;2023-05-11T09:33:03;98597.69;;;28.72;20.03
63535;BME280;55128;50.230;18.944;2023-05-11T09:38:08;98601.03;;;28.44;20.07
63535;BME280;55128;50.230;18.944;2023-05-11T09:53:36;98593.50;;;22.86;25.27
63535;BME280;55128;50.230;18.944;2023-05-11T10:03:51;98575.59;;;22.19;26.36
63535;BME280;55128;50.230;18.944;2023-05-11T10:08:54;98565.59;;;22.76;25.85
63535;BME280;55128;50.230;18.944;2023-05-11T10:13:56;98568.06;;;23.25;23.85
63535;BME280;55128;50.230;18.944;2023-05-11T10:18:56;98556.19;;;23.08;22.77
63535;BME280;55128;50.230;18.944;2023-05-11T10:23:58;98563.63;;;22.68;21.56
63535;BME280;55128;50.230;18.944;2023-05-11T10:28:59;98562.88;;;22.39;21.67
63535;BME280;55128;50.230;18.944;2023-05-11T10:34:00;98551.31;;;22.56;21.61
63535;BME280;55128;50.230;18.944;2023-05-11T10:39:01;98552.94;;;22.39;20.76
63535;BME280;55128;50.230;18.944;2023-05-11T10:44:29;98556.00;;;21.58;21.52
63535;BME280;55128;50.230;18.944;2023-05-11T10:49:36;98555.88;;;21.60;21.30
63535;BME280;55128;50.230;18.944;2023-05-11T11:05:35;98528.97;;;21.39;21.26
63535;BME280;55128;50.230;18.944;2023-05-11T11:10:40;98521.28;;;21.24;20.11
63535;BME280;55128;50.230;18.944;2023-05-11T11:20:57;98516.78;;;21.44;20.17
63535;BME280;55128;50.230;18.944;2023-05-11T11:25:58;98519.75;;;21.70;19.83
63535;BME280;55128;50.230;18.944;2023-05-11T11:47:18;98513.34;;;21.81;20.74
63535;BME280;55128;50.230;18.944;2023-05-11T12:02:34;98515.19;;;21.42;20.42
63535;BME280;55128;50.230;18.944;2023-05-11T12:07:35;98509.91;;;21.21;21.70
63535;BME280;55128;50.230;18.944;2023-05-11T12:12:39;98506.22;;;21.80;21.16
63535;BME280;55128;50.230;18.944;2023-05-11T12:17:43;98511.06;;;21.67;20.38
63535;BME280;55128;50.230;18.944;2023-05-11T12:22:44;98503.13;;;21.55;21.50
63535;BME280;55128;50.230;18.944;2023-05-11T12:27:54;98514.19;;;21.82;21.17
63535;BME280;55128;50.230;18.944;2023-05-11T12:32:57;98494.88;;;21.47;21.86
63535;BME280;55128;50.230;18.944;2023-05-11T12:38:03;98502.41;;;21.53;21.67
63535;BME280;55128;50.230;18.944;2023-05-11T12:43:03;98484.34;;;21.54;22.74
63535;BME280;55128;50.230;18.944;2023-05-11T12:48:04;98478.91;;;21.83;23.88
63535;BME280;55128;50.230;18.944;2023-05-11T12:53:17;98481.97;;;22.08;24.26
63535;BME280;55128;50.230;18.944;2023-05-11T12:58:18;98480.88;;;21.91;24.46
63535;BME280;55128;50.230;18.944;2023-05-11T13:03:29;98467.16;;;21.55;23.56
63535;BME280;55128;50.230;18.944;2023-05-11T13:08:30;98467.00;;;21.66;22.19
63535;BME280;55128;50.230;18.944;2023-05-11T13:13:30;98464.53;;;21.83;24.04
63535;BME280;55128;50.230;18.944;2023-05-11T13:18:31;98459.59;;;21.49;23.22
63535;BME280;55128;50.230;18.944;2023-05-11T13:23:34;98446.38;;;21.55;24.47
63535;BME280;55128;50.230;18.944;2023-05-11T13:28:35;98444.44;;;21.95;25.09
63535;BME280;55128;50.230;18.944;2023-05-11T13:33:36;98444.09;;;21.61;24.15
63535;BME280;55128;50.230;18.944;2023-05-11T13:38:36;98443.13;;;21.32;24.63
63535;BME280;55128;50.230;18.944;2023-05-11T13:43:36;98431.72;;;21.58;25.37
63535;BME280;55128;50.230;18.944;2023-05-11T13:48:37;98428.59;;;21.63;23.38
63535;BME280;55128;50.230;18.944;2023-05-11T13:53:37;98427.19;;;21.59;25.17
63535;BME280;55128;50.230;18.944;2023-05-11T13:58:37;98426.19;;;21.11;26.16
63535;BME280;55128;50.230;18.944;2023-05-11T14:03:38;98429.91;;;21.20;26.18
63535;BME280;55128;50.230;18.944;2023-05-11T14:08:38;98420.81;;;21.50;25.77
63535;BME280;55128;50.230;18.944;2023-05-11T14:13:39;98418.41;;;21.17;25.30
63535;BME280;55128;50.230;18.944;2023-05-11T14:18:40;98412.72;;;20.82;25.97
63535;BME280;55128;50.230;18.944;2023-05-11T14:23:40;98407.94;;;20.54;26.15
63535;BME280;55128;50.230;18.944;2023-05-11T14:28:40;98413.78;;;20.59;26.42
63535;BME280;55128;50.230;18.944;2023-05-11T14:33:41;98409.44;;;20.97;26.18
63535;BME280;55128;50.230;18.944;2023-05-11T14:38:41;98411.81;;;20.62;26.94
63535;BME280;55128;50.230;18.944;2023-05-11T14:43:42;98402.19;;;20.69;26.46
63535;BME280;55128;50.230;18.944;2023-05-11T14:48:42;98406.59;;;20.89;25.18
63535;BME280;55128;50.230;18.944;2023-05-11T14:53:42;98417.81;;;20.94;26.10
63535;BME280;55128;50.230;18.944;2023-05-11T14:58:43;98397.22;;;20.93;26.56
63535;BME280;55128;50.230;18.944;2023-05-11T15:03:43;98401.91;;;20.82;26.82
63535;BME280;55128;50.230;18.944;2023-05-11T15:08:44;98388.25;;;20.64;26.64
63535;BME280;55128;50.230;18.944;2023-05-11T15:13:44;98404.19;;;20.67;26.68
63535;BME280;55128;50.230;18.944;2023-05-11T15:18:46;98394.22;;;20.96;25.83
63535;BME280;55128;50.230;18.944;2023-05-11T15:23:46;98392.81;;;20.92;25.84
63535;BME280;55128;50.230;18.944;2023-05-11T15:28:48;98395.38;;;21.23;26.18
63535;BME280;55128;50.230;18.944;2023-05-11T15:33:49;98405.88;;;21.07;26.20
63535;BME280;55128;50.230;18.944;2023-05-11T15:38:49;98405.03;;;20.96;26.39
63535;BME280;55128;50.230;18.944;2023-05-11T15:43:50;98395.09;;;20.87;26.38
63535;BME280;55128;50.230;18.944;2023-05-11T15:48:51;98402.81;;;20.51;26.62
63535;BME280;55128;50.230;18.944;2023-05-11T15:53:51;98404.00;;;20.68;26.86
63535;BME280;55128;50.230;18.944;2023-05-11T15:58:52;98399.84;;;20.54;26.79
63535;BME280;55128;50.230;18.944;2023-05-11T16:03:52;98405.69;;;20.50;27.23
63535;BME280;55128;50.230;18.944;2023-05-11T16:08:53;98404.38;;;20.44;27.49
63535;BME280;55128;50.230;18.944;2023-05-11T16:13:53;98403.69;;;20.42;27.45
63535;BME280;55128;50.230;18.944;2023-05-11T16:18:53;98405.13;;;20.15;27.95
63535;BME280;55128;50.230;18.944;2023-05-11T16:23:54;98409.75;;;19.94;28.18
63535;BME280;55128;50.230;18.944;2023-05-11T16:28:54;98411.31;;;19.96;28.56
63535;BME280;55128;50.230;18.944;2023-05-11T16:33:55;98407.31;;;19.91;28.50
63535;BME280;55128;50.230;18.944;2023-05-11T16:38:55;98413.16;;;19.96;28.31
63535;BME280;55128;50.230;18.944;2023-05-11T16:43:55;98414.22;;;19.84;28.99
63535;BME280;55128;50.230;18.944;2023-05-11T16:48:55;98414.78;;;19.77;28.57
63535;BME280;55128;50.230;18.944;2023-05-11T16:53:56;98413.38;;;19.62;29.08
63535;BME280;55128;50.230;18.944;2023-05-11T16:58:56;98417.06;;;19.61;29.39
63535;BME280;55128;50.230;18.944;2023-05-11T17:03:56;98418.38;;;19.46;30.43
63535;BME280;55128;50.230;18.944;2023-05-11T17:08:57;98423.44;;;19.18;31.09
63535;BME280;55128;50.230;18.944;2023-05-11T17:13:57;98431.59;;;18.95;31.88
63535;BME280;55128;50.230;18.944;2023-05-11T17:18:57;98441.75;;;18.92;31.89
63535;BME280;55128;50.230;18.944;2023-05-11T17:23:58;98417.88;;;18.66;32.39
63535;BME280;55128;50.230;18.944;2023-05-11T17:28:58;98438.53;;;18.54;32.72
63535;BME280;55128;50.230;18.944;2023-05-11T17:33:59;98444.53;;;18.46;32.83
63535;BME280;55128;50.230;18.944;2023-05-11T17:38:59;98446.63;;;18.43;32.90
63535;BME280;55128;50.230;18.944;2023-05-11T17:44:00;98455.44;;;18.34;32.75
63535;BME280;55128;50.230;18.944;2023-05-11T17:49:00;98449.59;;;18.29;32.77
63535;BME280;55128;50.230;18.944;2023-05-11T17:54:02;98460.81;;;18.11;33.10
63535;BME280;55128;50.230;18.944;2023-05-11T17:59:02;98456.06;;;18.03;33.19
63535;BME280;55128;50.230;18.944;2023-05-11T18:04:03;98462.41;;;17.91;33.81
63535;BME280;55128;50.230;18.944;2023-05-11T18:09:03;98476.66;;;17.80;33.90
63535;BME280;55128;50.230;18.944;2023-05-11T18:14:07;98473.69;;;17.61;34.40
63535;BME280;55128;50.230;18.944;2023-05-11T18:19:07;98483.78;;;17.46;34.67
63535;BME280;55128;50.230;18.944;2023-05-11T18:24:08;98489.97;;;17.35;35.13
63535;BME280;55128;50.230;18.944;2023-05-11T18:29:08;98493.56;;;17.23;35.41
63535;BME280;55128;50.230;18.944;2023-05-11T18:34:10;98492.56;;;17.13;35.58
63535;BME280;55128;50.230;18.944;2023-05-11T18:39:11;98510.59;;;17.10;35.52
63535;BME280;55128;50.230;18.944;2023-05-11T18:44:13;98506.81;;;16.89;36.36
63535;BME280;55128;50.230;18.944;2023-05-11T18:49:14;98508.16;;;16.70;36.80
63535;BME280;55128;50.230;18.944;2023-05-11T18:54:14;98510.00;;;16.57;37.13
63535;BME280;55128;50.230;18.944;2023-05-11T18:59:14;98518.28;;;16.54;37.07
63535;BME280;55128;50.230;18.944;2023-05-11T19:04:15;98523.22;;;16.35;37.67
63535;BME280;55128;50.230;18.944;2023-05-11T19:09:18;98528.56;;;16.35;37.79
63535;BME280;55128;50.230;18.944;2023-05-11T19:14:19;98537.81;;;16.18;38.71
63535;BME280;55128;50.230;18.944;2023-05-11T19:19:19;98533.63;;;16.13;38.89
63535;BME280;55128;50.230;18.944;2023-05-11T19:24:19;98542.22;;;16.06;39.05
63535;BME280;55128;50.230;18.944;2023-05-11T19:29:20;98542.22;;;15.93;39.62
63535;BME280;55128;50.230;18.944;2023-05-11T19:34:21;98551.22;;;15.92;39.78
63535;BME280;55128;50.230;18.944;2023-05-11T19:39:22;98559.81;;;15.70;40.28
63535;BME280;55128;50.230;18.944;2023-05-11T19:44:23;98558.72;;;15.60;40.68
63535;BME280;55128;50.230;18.944;2023-05-11T19:49:23;98555.53;;;15.54;40.91
63535;BME280;55128;50.230;18.944;2023-05-11T19:54:24;98545.06;;;15.37;41.25
63535;BME280;55128;50.230;18.944;2023-05-11T19:59:25;98558.56;;;15.35;41.69
63535;BME280;55128;50.230;18.944;2023-05-11T20:04:31;98556.50;;;15.26;42.02
63535;BME280;55128;50.230;18.944;2023-05-11T20:09:31;98571.75;;;15.11;42.60
63535;BME280;55128;50.230;18.944;2023-05-11T20:14:32;98564.47;;;15.13;42.66
63535;BME280;55128;50.230;18.944;2023-05-11T20:19:35;98571.97;;;14.94;43.28
63535;BME280;55128;50.230;18.944;2023-05-11T20:24:36;98568.19;;;14.84;43.39
63535;BME280;55128;50.230;18.944;2023-05-11T20:29:36;98568.50;;;14.79;43.63
63535;BME280;55128;50.230;18.944;2023-05-11T20:34:39;98566.00;;;14.62;44.22
63535;BME280;55128;50.230;18.944;2023-05-11T20:39:39;98570.97;;;14.53;44.25
63535;BME280;55128;50.230;18.944;2023-05-11T20:44:39;98572.78;;;14.53;44.38
63535;BME280;55128;50.230;18.944;2023-05-11T20:49:40;98574.50;;;14.39;45.06
63535;BME280;55128;50.230;18.944;2023-05-11T20:54:40;98576.41;;;14.23;45.29
63535;BME280;55128;50.230;18.944;2023-05-11T20:59:41;98575.06;;;14.16;45.60
63535;BME280;55128;50.230;18.944;2023-05-11T21:04:41;98573.25;;;14.16;45.69
63535;BME280;55128;50.230;18.944;2023-05-11T21:09:42;98572.97;;;14.07;46.01
63535;BME280;55128;50.230;18.944;2023-05-11T21:14:43;98567.03;;;13.87;46.17
63535;BME280;55128;50.230;18.944;2023-05-11T21:19:43;98577.25;;;13.95;46.06
63535;BME280;55128;50.230;18.944;2023-05-11T21:24:44;98574.84;;;13.90;46.16
63535;BME280;55128;50.230;18.944;2023-05-11T21:29:44;98579.97;;;13.79;46.57
63535;BME280;55128;50.230;18.944;2023-05-11T21:34:44;98575.25;;;13.68;47.05
63535;BME280;55128;50.230;18.944;2023-05-11T21:39:48;98575.88;;;13.43;47.34
63535;BME280;55128;50.230;18.944;2023-05-11T21:44:48;98573.09;;;13.45;47.26
63535;BME280;55128;50.230;18.944;2023-05-11T21:49:49;98575.53;;;13.33;46.81
63535;BME280;55128;50.230;18.944;2023-05-11T21:54:49;98575.88;;;13.27;47.53
63535;BME280;55128;50.230;18.944;2023-05-11T21:59:49;98575.63;;;13.16;47.74
63535;BME280;55128;50.230;18.944;2023-05-11T22:04:50;98580.78;;;13.19;46.75
63535;BME280;55128;50.230;18.944;2023-05-11T22:09:50;98583.47;;;13.03;47.18
63535;BME280;55128;50.230;18.944;2023-05-11T22:14:50;98581.56;;;13.05;47.45
63535;BME280;55128;50.230;18.944;2023-05-11T22:19:51;98579.34;;;12.97;47.09
63535;BME280;55128;50.230;18.944;2023-05-11T22:24:51;98581.03;;;12.98;46.79
63535;BME280;55128;50.230;18.944;2023-05-11T22:29:52;98580.09;;;12.99;47.11
63535;BME280;55128;50.230;18.944;2023-05-11T22:34:57;98584.59;;;12.99;46.92
63535;BME280;55128;50.230;18.944;2023-05-11T22:39:57;98587.50;;;12.94;47.14
63535;BME280;55128;50.230;18.944;2023-05-11T22:44:57;98593.50;;;12.98;46.48
63535;BME280;55128;50.230;18.944;2023-05-11T22:49:58;98595.06;;;12.86;46.84
63535;BME280;55128;50.230;18.944;2023-05-11T22:54:59;98591.63;;;12.84;47.16
63535;BME280;55128;50.230;18.944;2023-05-11T22:59:59;98593.41;;;12.83;46.85
63535;BME280;55128;50.230;18.944;2023-05-11T23:05:00;98595.31;;;12.66;47.74
63535;BME280;55128;50.230;18.944;2023-05-11T23:10:00;98587.69;;;12.59;47.82
63535;BME280;55128;50.230;18.944;2023-05-11T23:15:01;98589.88;;;12.51;47.65
63535;BME280;55128;50.230;18.944;2023-05-11T23:20:01;98590.63;;;12.37;48.44
63535;BME280;55128;50.230;18.944;2023-05-11T23:25:02;98587.69;;;12.26;49.18
63535;BME280;55128;50.230;18.944;2023-05-11T23:30:02;98593.03;;;12.09;49.46
63535;BME280;55128;50.230;18.944;2023-05-11T23:35:03;98595.69;;;12.09;50.05
63535;BME280;55128;50.230;18.944;2023-05-11T23:40:04;98592.56;;;11.65;50.97
63535;BME280;55128;50.230;18.944;2023-05-11T23:45:05;98594.03;;;11.54;50.79
63535;BME280;55128;50.230;18.944;2023-05-11T23:50:07;98593.50;;;11.47;51.80
63535;BME280;55128;50.230;18.944;2023-05-11T23:55:09;98602.97;;;11.16;52.71
